Archival Weather

Chicago O'Hare International

Chicago, Illinois (KORD)

Report from: Saturday, March 5, 2022 8:51 AM CST
Current time: Saturday, February 4, 2023 10:09 PM CST

Current weather
Weather history
Weather forecast

Temperature10.0°C (50.0°F)
Wind chill8.2°C (46.7°F)
Dew point-0.6°C (30.9°F)
Winds 7 kts (3.6 m/s, 8.1 mph) South (180°)
Visibility10 mi. (16.1 km)
Clouds Few clouds 15,000 ft. (4,572 m)
Scattered clouds 20,000 ft. (6,096 m)
Ceiling: Broken clouds 25,000 ft. (7,620 m)
Altimeter29.93 in.Hg (1014 mB)
Relative humidity48 %
Density altitude-517 ft. (-158 m)
Sea-level pressure101.4 kPa (1014 mB, 29.93 in.Hg)
Remarks Automated weather observing station with precipitation discriminator
Pressure falling more slowly
Flight conditions Visual Meteorological Conditions
Raw dataKORD 051451Z 18007KT 10SM FEW150 SCT200 BKN250 10/M01 A2993 RMK AO2 SLP137 T01001006 56016
An unhandled exception has occurred. See browser dev tools for details. Reload 🗙